sensor_id;sensor_type;location;lat;lon;timestamp;pressure;altitude;pressure_sealevel;temperature;humidity
49979;BME280;35869;50.990;6.962;2024-02-23T00:01:59;98698.63;;;6.18;100.00
49979;BME280;35869;50.990;6.962;2024-02-23T00:06:59;98716.69;;;6.32;100.00
49979;BME280;35869;50.990;6.962;2024-02-23T00:11:59;98717.44;;;6.34;100.00
49979;BME280;35869;50.990;6.962;2024-02-23T00:17:00;98733.34;;;6.12;100.00
49979;BME280;35869;50.990;6.962;2024-02-23T00:22:00;98758.41;;;6.10;100.00
49979;BME280;35869;50.990;6.962;2024-02-23T00:27:00;98764.56;;;5.92;100.00
49979;BME280;35869;50.990;6.962;2024-02-23T00:32:00;98782.34;;;6.12;100.00
49979;BME280;35869;50.990;6.962;2024-02-23T00:37:01;98792.03;;;5.93;100.00
49979;BME280;35869;50.990;6.962;2024-02-23T00:42:01;98783.88;;;6.00;100.00
49979;BME280;35869;50.990;6.962;2024-02-23T00:47:01;98784.94;;;5.96;100.00
49979;BME280;35869;50.990;6.962;2024-02-23T00:52:02;98797.50;;;6.02;100.00
49979;BME280;35869;50.990;6.962;2024-02-23T00:57:02;98826.09;;;5.98;100.00
49979;BME280;35869;50.990;6.962;2024-02-23T01:02:02;98827.59;;;5.86;100.00
49979;BME280;35869;50.990;6.962;2024-02-23T01:07:02;98838.25;;;5.96;100.00
49979;BME280;35869;50.990;6.962;2024-02-23T01:12:03;98846.50;;;5.86;100.00
49979;BME280;35869;50.990;6.962;2024-02-23T01:17:03;98864.19;;;5.77;100.00
49979;BME280;35869;50.990;6.962;2024-02-23T01:22:03;98865.19;;;5.74;100.00
49979;BME280;35869;50.990;6.962;2024-02-23T01:27:04;98881.66;;;5.72;100.00
49979;BME280;35869;50.990;6.962;2024-02-23T01:32:04;98892.63;;;5.59;100.00
49979;BME280;35869;50.990;6.962;2024-02-23T01:37:04;98897.91;;;5.56;100.00
49979;BME280;35869;50.990;6.962;2024-02-23T01:42:05;98903.91;;;5.41;100.00
49979;BME280;35869;50.990;6.962;2024-02-23T01:47:05;98897.59;;;5.47;100.00
49979;BME280;35869;50.990;6.962;2024-02-23T01:52:05;98906.97;;;5.48;100.00
49979;BME280;35869;50.990;6.962;2024-02-23T01:57:06;98915.38;;;5.18;100.00
49979;BME280;35869;50.990;6.962;2024-02-23T02:02:08;98919.16;;;5.28;100.00
49979;BME280;35869;50.990;6.962;2024-02-23T02:07:09;98924.16;;;5.31;100.00
49979;BME280;35869;50.990;6.962;2024-02-23T02:12:09;98928.38;;;5.32;100.00
49979;BME280;35869;50.990;6.962;2024-02-23T02:17:09;98929.59;;;5.25;100.00
49979;BME280;35869;50.990;6.962;2024-02-23T02:22:09;98927.53;;;5.16;100.00
49979;BME280;35869;50.990;6.962;2024-02-23T02:27:09;98940.13;;;5.21;100.00
49979;BME280;35869;50.990;6.962;2024-02-23T02:32:10;98947.66;;;5.08;100.00
49979;BME280;35869;50.990;6.962;2024-02-23T02:37:10;98957.13;;;5.07;100.00
49979;BME280;35869;50.990;6.962;2024-02-23T02:42:10;98949.41;;;4.90;100.00
49979;BME280;35869;50.990;6.962;2024-02-23T02:47:10;98969.41;;;5.02;100.00
49979;BME280;35869;50.990;6.962;2024-02-23T02:52:11;98971.06;;;5.03;100.00
49979;BME280;35869;50.990;6.962;2024-02-23T02:57:11;98972.19;;;4.98;100.00
49979;BME280;35869;50.990;6.962;2024-02-23T03:02:11;98978.25;;;4.97;100.00
49979;BME280;35869;50.990;6.962;2024-02-23T03:07:12;98975.69;;;4.97;100.00
49979;BME280;35869;50.990;6.962;2024-02-23T03:12:12;98984.47;;;4.93;100.00
49979;BME280;35869;50.990;6.962;2024-02-23T03:17:12;98986.34;;;4.89;100.00
49979;BME280;35869;50.990;6.962;2024-02-23T03:22:12;98984.09;;;4.83;100.00
49979;BME280;35869;50.990;6.962;2024-02-23T03:27:13;98981.59;;;4.81;100.00
49979;BME280;35869;50.990;6.962;2024-02-23T03:32:13;98985.03;;;4.80;100.00
49979;BME280;35869;50.990;6.962;2024-02-23T03:37:13;98978.41;;;4.76;100.00
49979;BME280;35869;50.990;6.962;2024-02-23T03:42:13;98994.59;;;4.78;100.00
49979;BME280;35869;50.990;6.962;2024-02-23T03:47:13;98994.16;;;4.70;100.00
49979;BME280;35869;50.990;6.962;2024-02-23T03:52:14;99007.69;;;4.74;100.00
49979;BME280;35869;50.990;6.962;2024-02-23T03:57:14;99003.53;;;4.71;100.00
49979;BME280;35869;50.990;6.962;2024-02-23T04:02:14;99013.06;;;4.69;100.00
49979;BME280;35869;50.990;6.962;2024-02-23T04:07:14;99018.25;;;4.68;100.00
49979;BME280;35869;50.990;6.962;2024-02-23T04:12:14;99011.63;;;4.64;100.00
49979;BME280;35869;50.990;6.962;2024-02-23T04:17:15;99002.78;;;4.69;100.00
49979;BME280;35869;50.990;6.962;2024-02-23T04:22:15;99016.69;;;4.65;100.00
49979;BME280;35869;50.990;6.962;2024-02-23T04:27:16;99016.22;;;4.74;100.00
49979;BME280;35869;50.990;6.962;2024-02-23T04:32:16;99023.72;;;4.79;100.00
49979;BME280;35869;50.990;6.962;2024-02-23T04:37:16;99027.31;;;4.76;100.00
49979;BME280;35869;50.990;6.962;2024-02-23T04:42:16;99035.03;;;4.76;100.00
49979;BME280;35869;50.990;6.962;2024-02-23T04:47:16;99038.06;;;4.85;100.00
49979;BME280;35869;50.990;6.962;2024-02-23T04:52:17;99033.31;;;4.94;100.00
49979;BME280;35869;50.990;6.962;2024-02-23T04:57:17;99041.25;;;4.90;100.00
49979;BME280;35869;50.990;6.962;2024-02-23T05:02:17;99038.38;;;4.96;100.00
49979;BME280;35869;50.990;6.962;2024-02-23T05:07:17;99042.91;;;4.91;100.00
49979;BME280;35869;50.990;6.962;2024-02-23T05:12:18;99052.16;;;4.95;100.00
49979;BME280;35869;50.990;6.962;2024-02-23T05:17:18;99042.47;;;5.00;100.00
49979;BME280;35869;50.990;6.962;2024-02-23T05:22:18;99033.09;;;4.99;100.00
49979;BME280;35869;50.990;6.962;2024-02-23T05:27:18;99027.16;;;4.97;100.00
49979;BME280;35869;50.990;6.962;2024-02-23T05:32:18;99036.50;;;4.99;100.00
49979;BME280;35869;50.990;6.962;2024-02-23T05:37:19;99027.69;;;5.03;100.00
49979;BME280;35869;50.990;6.962;2024-02-23T05:42:19;99029.91;;;4.94;100.00
49979;BME280;35869;50.990;6.962;2024-02-23T05:47:19;99031.94;;;4.87;100.00
49979;BME280;35869;50.990;6.962;2024-02-23T05:52:19;99032.91;;;4.85;100.00
49979;BME280;35869;50.990;6.962;2024-02-23T05:57:19;99028.81;;;4.80;100.00
49979;BME280;35869;50.990;6.962;2024-02-23T06:02:20;99033.19;;;4.78;100.00
49979;BME280;35869;50.990;6.962;2024-02-23T06:07:20;99037.50;;;4.78;100.00
49979;BME280;35869;50.990;6.962;2024-02-23T06:12:20;99040.16;;;4.76;100.00
49979;BME280;35869;50.990;6.962;2024-02-23T06:17:20;99035.16;;;4.73;100.00
49979;BME280;35869;50.990;6.962;2024-02-23T06:22:20;99030.38;;;4.66;100.00
49979;BME280;35869;50.990;6.962;2024-02-23T06:27:21;99022.28;;;4.73;100.00
49979;BME280;35869;50.990;6.962;2024-02-23T06:32:21;99022.88;;;4.61;100.00
49979;BME280;35869;50.990;6.962;2024-02-23T06:37:21;99028.50;;;4.69;100.00
49979;BME280;35869;50.990;6.962;2024-02-23T06:42:21;99027.19;;;4.61;100.00
49979;BME280;35869;50.990;6.962;2024-02-23T06:47:22;99027.38;;;4.56;100.00
49979;BME280;35869;50.990;6.962;2024-02-23T06:52:22;99023.50;;;4.66;100.00
49979;BME280;35869;50.990;6.962;2024-02-23T06:57:22;99015.31;;;4.58;100.00
49979;BME280;35869;50.990;6.962;2024-02-23T07:02:22;99020.22;;;4.63;100.00
49979;BME280;35869;50.990;6.962;2024-02-23T07:07:23;99034.81;;;4.62;100.00
49979;BME280;35869;50.990;6.962;2024-02-23T07:12:23;99036.78;;;4.57;100.00
49979;BME280;35869;50.990;6.962;2024-02-23T07:17:23;99037.47;;;4.61;100.00
49979;BME280;35869;50.990;6.962;2024-02-23T07:22:23;99040.41;;;4.53;100.00
49979;BME280;35869;50.990;6.962;2024-02-23T07:27:24;99040.13;;;4.59;100.00
49979;BME280;35869;50.990;6.962;2024-02-23T07:32:24;99034.34;;;4.54;100.00
49979;BME280;35869;50.990;6.962;2024-02-23T07:37:26;99022.13;;;4.59;100.00
49979;BME280;35869;50.990;6.962;2024-02-23T07:42:26;99020.66;;;4.53;100.00
49979;BME280;35869;50.990;6.962;2024-02-23T07:47:26;99006.97;;;4.53;100.00
49979;BME280;35869;50.990;6.962;2024-02-23T07:52:27;99012.75;;;4.58;100.00
49979;BME280;35869;50.990;6.962;2024-02-23T07:57:27;99014.25;;;4.62;100.00
49979;BME280;35869;50.990;6.962;2024-02-23T08:02:27;99015.94;;;4.63;100.00
49979;BME280;35869;50.990;6.962;2024-02-23T08:07:27;99027.22;;;4.78;100.00
49979;BME280;35869;50.990;6.962;2024-02-23T08:12:27;99038.34;;;4.78;100.00
49979;BME280;35869;50.990;6.962;2024-02-23T08:17:28;99046.75;;;4.82;100.00
49979;BME280;35869;50.990;6.962;2024-02-23T08:22:28;99032.91;;;4.85;100.00
49979;BME280;35869;50.990;6.962;2024-02-23T08:27:29;99038.38;;;4.96;100.00
49979;BME280;35869;50.990;6.962;2024-02-23T08:32:30;99042.41;;;5.01;100.00
49979;BME280;35869;50.990;6.962;2024-02-23T08:37:30;99039.38;;;5.11;100.00
49979;BME280;35869;50.990;6.962;2024-02-23T08:42:30;99041.19;;;5.08;100.00
49979;BME280;35869;50.990;6.962;2024-02-23T08:47:30;99044.25;;;5.17;100.00
49979;BME280;35869;50.990;6.962;2024-02-23T08:52:30;99043.47;;;5.32;100.00
49979;BME280;35869;50.990;6.962;2024-02-23T08:57:33;99049.09;;;5.40;100.00
49979;BME280;35869;50.990;6.962;2024-02-23T09:02:33;99077.78;;;5.50;100.00
49979;BME280;35869;50.990;6.962;2024-02-23T09:07:33;99068.69;;;5.60;100.00
49979;BME280;35869;50.990;6.962;2024-02-23T09:12:33;99073.41;;;5.69;100.00
49979;BME280;35869;50.990;6.962;2024-02-23T09:17:34;99066.69;;;6.00;100.00
49979;BME280;35869;50.990;6.962;2024-02-23T09:22:34;99072.81;;;5.97;100.00
49979;BME280;35869;50.990;6.962;2024-02-23T09:27:35;99087.91;;;6.05;100.00
49979;BME280;35869;50.990;6.962;2024-02-23T09:32:35;99080.19;;;6.05;100.00
49979;BME280;35869;50.990;6.962;2024-02-23T09:37:35;99074.06;;;6.23;100.00
49979;BME280;35869;50.990;6.962;2024-02-23T09:42:36;99066.16;;;6.42;100.00
49979;BME280;35869;50.990;6.962;2024-02-23T09:47:36;99071.16;;;6.29;100.00
49979;BME280;35869;50.990;6.962;2024-02-23T09:52:36;99061.50;;;6.80;100.00
49979;BME280;35869;50.990;6.962;2024-02-23T09:57:37;99072.16;;;6.58;100.00
49979;BME280;35869;50.990;6.962;2024-02-23T10:02:39;99061.06;;;6.72;100.00
49979;BME280;35869;50.990;6.962;2024-02-23T10:07:40;99068.47;;;6.62;100.00
49979;BME280;35869;50.990;6.962;2024-02-23T10:12:40;99068.91;;;6.86;100.00
49979;BME280;35869;50.990;6.962;2024-02-23T10:17:40;99089.81;;;6.82;100.00
49979;BME280;35869;50.990;6.962;2024-02-23T10:22:41;99086.22;;;6.84;100.00
49979;BME280;35869;50.990;6.962;2024-02-23T10:27:41;99088.06;;;6.82;100.00
49979;BME280;35869;50.990;6.962;2024-02-23T10:32:41;99093.53;;;7.08;100.00
49979;BME280;35869;50.990;6.962;2024-02-23T10:37:43;99091.75;;;7.24;100.00
49979;BME280;35869;50.990;6.962;2024-02-23T10:42:44;99096.34;;;7.03;100.00
49979;BME280;35869;50.990;6.962;2024-02-23T10:47:46;99104.97;;;7.04;100.00
49979;BME280;35869;50.990;6.962;2024-02-23T10:52:47;99104.44;;;7.13;100.00
49979;BME280;35869;50.990;6.962;2024-02-23T10:57:48;99113.00;;;7.29;100.00
49979;BME280;35869;50.990;6.962;2024-02-23T11:02:51;99104.63;;;7.10;100.00
49979;BME280;35869;50.990;6.962;2024-02-23T11:07:56;99105.53;;;7.09;100.00
49979;BME280;35869;50.990;6.962;2024-02-23T11:13:00;99102.09;;;7.24;100.00
49979;BME280;35869;50.990;6.962;2024-02-23T11:18:00;99098.59;;;7.25;100.00
49979;BME280;35869;50.990;6.962;2024-02-23T11:23:00;99097.28;;;7.48;100.00
49979;BME280;35869;50.990;6.962;2024-02-23T11:28:00;99089.56;;;7.32;100.00
49979;BME280;35869;50.990;6.962;2024-02-23T11:33:01;99099.16;;;7.30;100.00
49979;BME280;35869;50.990;6.962;2024-02-23T11:38:03;99090.56;;;7.60;100.00
49979;BME280;35869;50.990;6.962;2024-02-23T11:43:04;99091.75;;;7.54;100.00
49979;BME280;35869;50.990;6.962;2024-02-23T11:48:06;99080.41;;;7.57;100.00
49979;BME280;35869;50.990;6.962;2024-02-23T11:53:07;99068.91;;;7.77;100.00
49979;BME280;35869;50.990;6.962;2024-02-23T11:58:08;99065.66;;;7.73;100.00
49979;BME280;35869;50.990;6.962;2024-02-23T12:03:08;99071.13;;;7.83;100.00
49979;BME280;35869;50.990;6.962;2024-02-23T12:08:08;99056.69;;;7.64;100.00
49979;BME280;35869;50.990;6.962;2024-02-23T12:13:09;99060.22;;;7.92;100.00
49979;BME280;35869;50.990;6.962;2024-02-23T12:18:10;99070.09;;;7.71;100.00
49979;BME280;35869;50.990;6.962;2024-02-23T12:23:11;99055.41;;;7.71;100.00
49979;BME280;35869;50.990;6.962;2024-02-23T12:28:12;99075.00;;;7.75;100.00
49979;BME280;35869;50.990;6.962;2024-02-23T12:33:17;99072.31;;;7.77;100.00
49979;BME280;35869;50.990;6.962;2024-02-23T12:38:17;99065.56;;;7.89;100.00
49979;BME280;35869;50.990;6.962;2024-02-23T12:43:18;99069.63;;;7.79;100.00
49979;BME280;35869;50.990;6.962;2024-02-23T12:48:18;99061.97;;;8.20;100.00
49979;BME280;35869;50.990;6.962;2024-02-23T12:53:35;99060.50;;;8.01;100.00
49979;BME280;35869;50.990;6.962;2024-02-23T12:58:37;99060.31;;;8.19;100.00
49979;BME280;35869;50.990;6.962;2024-02-23T13:03:39;99063.81;;;8.18;100.00
49979;BME280;35869;50.990;6.962;2024-02-23T13:08:39;99065.19;;;8.23;100.00
49979;BME280;35869;50.990;6.962;2024-02-23T13:13:39;99064.09;;;8.42;100.00
49979;BME280;35869;50.990;6.962;2024-02-23T13:18:39;99060.50;;;8.16;100.00
49979;BME280;35869;50.990;6.962;2024-02-23T13:23:40;99063.66;;;8.21;100.00
49979;BME280;35869;50.990;6.962;2024-02-23T13:28:43;99061.97;;;8.34;100.00
49979;BME280;35869;50.990;6.962;2024-02-23T13:33:44;99055.03;;;8.35;100.00
49979;BME280;35869;50.990;6.962;2024-02-23T13:38:44;99055.09;;;8.62;100.00
49979;BME280;35869;50.990;6.962;2024-02-23T13:43:45;99054.31;;;8.33;100.00
49979;BME280;35869;50.990;6.962;2024-02-23T13:48:45;99046.63;;;8.72;100.00
49979;BME280;35869;50.990;6.962;2024-02-23T13:53:45;99060.66;;;8.55;100.00
49979;BME280;35869;50.990;6.962;2024-02-23T13:58:46;99058.44;;;8.49;100.00
49979;BME280;35869;50.990;6.962;2024-02-23T14:03:46;99046.81;;;8.42;100.00
49979;BME280;35869;50.990;6.962;2024-02-23T14:08:46;99040.00;;;8.68;100.00
49979;BME280;35869;50.990;6.962;2024-02-23T14:13:46;99046.03;;;8.54;100.00
49979;BME280;35869;50.990;6.962;2024-02-23T14:18:47;99041.22;;;8.63;100.00
49979;BME280;35869;50.990;6.962;2024-02-23T14:23:47;99050.56;;;8.92;100.00
49979;BME280;35869;50.990;6.962;2024-02-23T14:28:47;99048.66;;;8.81;100.00
49979;BME280;35869;50.990;6.962;2024-02-23T14:33:47;99057.66;;;8.76;100.00
49979;BME280;35869;50.990;6.962;2024-02-23T14:38:47;99057.38;;;8.66;100.00
49979;BME280;35869;50.990;6.962;2024-02-23T14:43:48;99054.94;;;8.77;100.00
49979;BME280;35869;50.990;6.962;2024-02-23T14:48:48;99058.56;;;9.02;100.00
49979;BME280;35869;50.990;6.962;2024-02-23T14:53:48;99047.69;;;8.70;100.00
49979;BME280;35869;50.990;6.962;2024-02-23T14:58:48;99057.34;;;9.07;100.00
49979;BME280;35869;50.990;6.962;2024-02-23T15:03:48;99062.31;;;8.98;100.00
49979;BME280;35869;50.990;6.962;2024-02-23T15:08:49;99065.81;;;8.70;100.00
49979;BME280;35869;50.990;6.962;2024-02-23T15:13:49;99060.97;;;8.78;100.00
49979;BME280;35869;50.990;6.962;2024-02-23T15:18:49;99069.72;;;8.90;100.00
49979;BME280;35869;50.990;6.962;2024-02-23T15:23:50;99063.22;;;8.70;100.00
49979;BME280;35869;50.990;6.962;2024-02-23T15:28:50;99061.22;;;8.88;100.00
49979;BME280;35869;50.990;6.962;2024-02-23T15:33:50;99068.06;;;8.89;100.00
49979;BME280;35869;50.990;6.962;2024-02-23T15:38:50;99062.44;;;8.82;100.00
49979;BME280;35869;50.990;6.962;2024-02-23T15:43:51;99070.34;;;8.93;100.00
49979;BME280;35869;50.990;6.962;2024-02-23T15:48:51;99074.13;;;8.75;100.00
49979;BME280;35869;50.990;6.962;2024-02-23T15:53:51;99074.50;;;8.96;100.00
49979;BME280;35869;50.990;6.962;2024-02-23T15:58:51;99067.88;;;8.92;100.00
49979;BME280;35869;50.990;6.962;2024-02-23T16:03:52;99061.22;;;8.88;100.00
49979;BME280;35869;50.990;6.962;2024-02-23T16:08:52;99075.06;;;8.74;100.00
49979;BME280;35869;50.990;6.962;2024-02-23T16:13:52;99068.72;;;8.78;100.00
49979;BME280;35869;50.990;6.962;2024-02-23T16:18:52;99075.34;;;8.69;100.00
49979;BME280;35869;50.990;6.962;2024-02-23T16:23:52;99076.44;;;8.65;100.00
49979;BME280;35869;50.990;6.962;2024-02-23T16:28:53;99078.03;;;8.53;100.00
49979;BME280;35869;50.990;6.962;2024-02-23T16:33:53;99073.97;;;8.49;100.00
49979;BME280;35869;50.990;6.962;2024-02-23T16:38:53;99077.97;;;8.41;100.00
49979;BME280;35869;50.990;6.962;2024-02-23T16:43:53;99077.50;;;8.48;100.00
49979;BME280;35869;50.990;6.962;2024-02-23T16:48:54;99081.13;;;8.46;100.00
49979;BME280;35869;50.990;6.962;2024-02-23T16:53:54;99090.66;;;8.45;100.00
49979;BME280;35869;50.990;6.962;2024-02-23T16:58:54;99089.50;;;8.35;100.00
49979;BME280;35869;50.990;6.962;2024-02-23T17:03:54;99101.16;;;8.42;100.00
49979;BME280;35869;50.990;6.962;2024-02-23T17:08:55;99107.28;;;8.41;100.00
49979;BME280;35869;50.990;6.962;2024-02-23T17:13:55;99102.75;;;8.45;100.00
49979;BME280;35869;50.990;6.962;2024-02-23T17:18:55;99098.84;;;8.38;100.00
49979;BME280;35869;50.990;6.962;2024-02-23T17:23:55;99104.22;;;8.35;100.00
49979;BME280;35869;50.990;6.962;2024-02-23T17:28:56;99117.25;;;8.33;100.00
49979;BME280;35869;50.990;6.962;2024-02-23T17:33:56;99127.88;;;8.28;100.00
49979;BME280;35869;50.990;6.962;2024-02-23T17:38:56;99133.31;;;8.24;100.00
49979;BME280;35869;50.990;6.962;2024-02-23T17:43:57;99141.00;;;8.25;100.00
49979;BME280;35869;50.990;6.962;2024-02-23T17:48:57;99141.34;;;8.19;100.00
49979;BME280;35869;50.990;6.962;2024-02-23T17:53:57;99141.72;;;8.13;100.00
49979;BME280;35869;50.990;6.962;2024-02-23T17:58:57;99137.38;;;8.14;100.00
49979;BME280;35869;50.990;6.962;2024-02-23T18:03:58;99151.03;;;8.01;100.00
49979;BME280;35869;50.990;6.962;2024-02-23T18:08:58;99152.16;;;7.97;100.00
49979;BME280;35869;50.990;6.962;2024-02-23T18:13:59;99154.81;;;7.96;100.00
49979;BME280;35869;50.990;6.962;2024-02-23T18:18:59;99153.78;;;7.84;100.00
49979;BME280;35869;50.990;6.962;2024-02-23T18:24:00;99157.38;;;7.82;100.00
49979;BME280;35869;50.990;6.962;2024-02-23T18:29:00;99167.25;;;7.75;100.00
49979;BME280;35869;50.990;6.962;2024-02-23T18:34:00;99164.25;;;7.67;100.00
49979;BME280;35869;50.990;6.962;2024-02-23T18:39:00;99160.75;;;7.68;100.00
49979;BME280;35869;50.990;6.962;2024-02-23T18:44:02;99155.03;;;7.63;100.00
49979;BME280;35869;50.990;6.962;2024-02-23T18:49:03;99156.38;;;7.54;100.00
49979;BME280;35869;50.990;6.962;2024-02-23T18:54:03;99169.50;;;7.51;100.00
49979;BME280;35869;50.990;6.962;2024-02-23T18:59:03;99168.81;;;7.47;100.00
49979;BME280;35869;50.990;6.962;2024-02-23T19:04:03;99181.16;;;7.42;100.00
49979;BME280;35869;50.990;6.962;2024-02-23T19:09:04;99201.69;;;7.45;100.00
49979;BME280;35869;50.990;6.962;2024-02-23T19:14:04;99196.34;;;7.33;100.00
49979;BME280;35869;50.990;6.962;2024-02-23T19:19:04;99203.59;;;7.26;100.00
49979;BME280;35869;50.990;6.962;2024-02-23T19:24:05;99198.28;;;7.29;100.00
49979;BME280;35869;50.990;6.962;2024-02-23T19:29:05;99194.44;;;7.20;100.00
49979;BME280;35869;50.990;6.962;2024-02-23T19:34:05;99197.19;;;7.17;100.00
49979;BME280;35869;50.990;6.962;2024-02-23T19:39:06;99199.69;;;7.19;100.00
49979;BME280;35869;50.990;6.962;2024-02-23T19:44:06;99203.94;;;7.20;100.00
49979;BME280;35869;50.990;6.962;2024-02-23T19:49:07;99210.63;;;7.24;100.00
49979;BME280;35869;50.990;6.962;2024-02-23T19:54:07;99199.69;;;7.19;100.00
49979;BME280;35869;50.990;6.962;2024-02-23T19:59:07;99193.69;;;7.18;100.00
49979;BME280;35869;50.990;6.962;2024-02-23T20:04:07;99204.88;;;7.19;100.00
49979;BME280;35869;50.990;6.962;2024-02-23T20:09:08;99194.78;;;7.14;100.00
49979;BME280;35869;50.990;6.962;2024-02-23T20:14:08;99205.44;;;7.08;100.00
49979;BME280;35869;50.990;6.962;2024-02-23T20:19:08;99214.94;;;7.08;100.00
49979;BME280;35869;50.990;6.962;2024-02-23T20:24:08;99210.63;;;6.92;100.00
49979;BME280;35869;50.990;6.962;2024-02-23T20:29:09;99213.34;;;6.89;100.00
49979;BME280;35869;50.990;6.962;2024-02-23T20:34:09;99223.34;;;6.95;100.00
49979;BME280;35869;50.990;6.962;2024-02-23T20:39:09;99223.84;;;6.86;100.00
49979;BME280;35869;50.990;6.962;2024-02-23T20:44:10;99226.78;;;6.80;100.00
49979;BME280;35869;50.990;6.962;2024-02-23T20:49:10;99222.34;;;6.82;100.00
49979;BME280;35869;50.990;6.962;2024-02-23T20:54:10;99215.75;;;6.77;100.00
49979;BME280;35869;50.990;6.962;2024-02-23T20:59:10;99222.66;;;6.76;100.00
49979;BME280;35869;50.990;6.962;2024-02-23T21:04:11;99218.91;;;6.66;100.00
49979;BME280;35869;50.990;6.962;2024-02-23T21:09:11;99234.56;;;6.63;100.00
49979;BME280;35869;50.990;6.962;2024-02-23T21:14:11;99235.13;;;6.68;100.00
49979;BME280;35869;50.990;6.962;2024-02-23T21:19:11;99238.28;;;6.57;100.00
49979;BME280;35869;50.990;6.962;2024-02-23T21:24:11;99244.44;;;6.55;100.00
49979;BME280;35869;50.990;6.962;2024-02-23T21:29:12;99247.94;;;6.54;100.00
49979;BME280;35869;50.990;6.962;2024-02-23T21:34:12;99249.75;;;6.52;100.00
49979;BME280;35869;50.990;6.962;2024-02-23T21:39:12;99246.09;;;6.56;100.00
49979;BME280;35869;50.990;6.962;2024-02-23T21:44:12;99246.91;;;6.56;100.00
49979;BME280;35869;50.990;6.962;2024-02-23T21:49:12;99248.06;;;6.51;100.00
49979;BME280;35869;50.990;6.962;2024-02-23T21:54:13;99245.06;;;6.43;100.00
49979;BME280;35869;50.990;6.962;2024-02-23T21:59:13;99253.50;;;6.46;100.00
49979;BME280;35869;50.990;6.962;2024-02-23T22:04:13;99250.06;;;6.46;100.00
49979;BME280;35869;50.990;6.962;2024-02-23T22:09:13;99248.69;;;6.38;100.00
49979;BME280;35869;50.990;6.962;2024-02-23T22:14:13;99248.25;;;6.48;100.00
49979;BME280;35869;50.990;6.962;2024-02-23T22:19:14;99231.41;;;6.40;100.00
49979;BME280;35869;50.990;6.962;2024-02-23T22:24:14;99246.88;;;6.40;100.00
49979;BME280;35869;50.990;6.962;2024-02-23T22:29:14;99245.28;;;6.38;100.00
49979;BME280;35869;50.990;6.962;2024-02-23T22:34:14;99248.03;;;6.35;100.00
49979;BME280;35869;50.990;6.962;2024-02-23T22:39:14;99249.19;;;6.29;100.00
49979;BME280;35869;50.990;6.962;2024-02-23T22:44:15;99252.06;;;6.23;100.00
49979;BME280;35869;50.990;6.962;2024-02-23T22:49:15;99239.31;;;6.20;100.00
49979;BME280;35869;50.990;6.962;2024-02-23T22:54:15;99232.66;;;6.16;100.00
49979;BME280;35869;50.990;6.962;2024-02-23T22:59:15;99237.50;;;6.22;100.00
49979;BME280;35869;50.990;6.962;2024-02-23T23:04:15;99238.88;;;6.12;100.00
49979;BME280;35869;50.990;6.962;2024-02-23T23:09:16;99240.75;;;6.08;100.00
49979;BME280;35869;50.990;6.962;2024-02-23T23:14:16;99239.31;;;6.03;100.00
49979;BME280;35869;50.990;6.962;2024-02-23T23:19:16;99240.38;;;5.99;100.00
49979;BME280;35869;50.990;6.962;2024-02-23T23:24:16;99243.00;;;5.97;100.00
49979;BME280;35869;50.990;6.962;2024-02-23T23:29:16;99239.00;;;5.92;100.00
49979;BME280;35869;50.990;6.962;2024-02-23T23:34:17;99248.47;;;5.91;100.00
49979;BME280;35869;50.990;6.962;2024-02-23T23:39:17;99252.16;;;5.85;100.00
49979;BME280;35869;50.990;6.962;2024-02-23T23:44:17;99259.22;;;5.82;100.00
49979;BME280;35869;50.990;6.962;2024-02-23T23:49:18;99260.34;;;5.76;100.00
49979;BME280;35869;50.990;6.962;2024-02-23T23:54:18;99255.63;;;5.67;100.00
49979;BME280;35869;50.990;6.962;2024-02-23T23:59:18;99254.16;;;5.61;100.00
